Tiempo atmosférico en la estación meteorológica de Fuente De Cantos, Badajoz (602 m.)



Fecha
DESCASC
Temp. máxima en grados centígrados (hora)
DESCASC
Temp. mínima en grados centígrados (hora)
DESCASC
Temp. media en grados centígrados
DESCASC
Racha de viento máxima en m/sg (hora)
DESCASC
Velocidad máxima media en intervalos de 10 minutos(hora)
DESCASC
Precipitaciones diarias en mm
DESCASC
Precipitaciones de 00:00 a 06:00 en mm
DESCASC
Precipitaciones de 06:00 a 12:00 en mm
DESCASC
Precipitaciones de 12:00 a 18:00 en mm
DESCASC
Precipitaciones de 18:00 a 24:00 en mm
DESCASC
14-07-2019 32.5 (18:30) 15.2 (00:00) 23.8 11.39 (20:40) 8.89 (22:10) 0 0 0 0 0
13-07-2019 28.5 (18:30) 15.8 (00:00) 22.2 11.94 (16:00) 8.06 (00:40) 0 0 0 0 0
12-07-2019 34.9 (15:20) 20.8 (00:00) 27.9 11.39 (19:40) 8.33 (16:10) 0 0 0 0 0
11-07-2019 37.9 (17:20) 20.3 (00:00) 29.1 10.28 (15:20) 6.67 (17:30) 0 0 0 0 0
10-07-2019 33.8 (18:20) 18.5 (00:00) 26.1 9.44 (13:40) 5.56 (13:00) 0 0 0 0 0
09-07-2019 28.5 (18:40) 13.4 (00:00) 20.9 9.72 (13:00) 5.28 (16:30) 0 0 0 0 0
08-07-2019 25.3 (19:10) 13.3 (00:00) 19.3 11.94 (18:00) 7.5 (20:20) 0 0 0 0 0
07-07-2019 30.1 (16:20) 13.8 (00:00) 22 12.22 (19:50) 9.44 (18:50) 0 0 0 0 0
06-07-2019 31.2 (17:10) 14.6 (00:00) 22.9 13.89 (20:00) 8.61 (19:50) 0 0 0 0 0
05-07-2019 31.3 (17:30) 13.1 (00:00) 22.2 11.39 (18:40) 7.5 (17:30) 0 0 0 0 0
04-07-2019 28.2 (18:00) 14 (00:00) 21.1 11.39 (18:30) 7.78 (09:00) 0 0 0 0 0
03-07-2019 29.3 (17:10) 14.5 (00:00) 21.9 12.22 (16:00) 7.22 (14:20) 0 0 0 0 0
02-07-2019 32.3 (17:40) 13.8 (07:20) 23 16.39 (16:50) 6.94 (18:00) 0 0 0 0 0
01-07-2019 31.5 (18:10) 16.2 (07:20) 23.9 11.39 (18:10) 7.78 (19:30) 0 0 0 0 0
30-06-2019 33.7 (16:00) 20.4 (00:00) 27.1 11.67 (19:20) 7.78 (21:20) 0 0 0 0 0
29-06-2019 36.8 (16:10) 19.7 (00:00) 28.3 10 (15:40) 7.22 (21:30) 0 0 0 0 0
28-06-2019 35.7 (18:30) 17.1 (00:00) 26.4 11.94 (14:50) 7.5 (14:50) 0 0 0 0 0
27-06-2019 30.7 (18:20) 15.7 (00:00) 23.2 10.83 (13:20) 6.67 (20:50) 0 0 0 0 0
26-06-2019 29.5 (16:30) 16.2 (00:00) 22.9 12.5 (16:40) 8.61 (18:00) 0 0 0 0 0
25-06-2019 31 (17:50) 15.4 (00:00) 23.2 10.28 (16:50) 7.22 (20:10) 0 0 0 0 0
24-06-2019 30.1 (16:40) 18 (00:00) 24.1 13.61 (18:20) 7.22 (16:40) 0 0 0 0 0
23-06-2019 31.6 (17:50) 16.3 (00:00) 23.9 10.56 (17:40) 7.22 (19:40) 0 0 0 0 0
22-06-2019 31.6 (17:20) 16.4 (00:00) 24 10 (13:20) 7.22 (21:40) 0 0 0 0 0
21-06-2019 27.6 (18:10) 10 (00:00) 18.8 8.89 (00:40) 6.94 (00:20) 0 0 0 0 0
20-06-2019 26 (17:20) 13 (00:00) 19.5 12.22 (13:40) 8.33 (21:40) 0 0 0 0 0
19-06-2019 25.4 (17:20) 13.3 (00:00) 19.3 9.72 (15:20) 6.11 (20:40) 0 0 0 0 0
18-06-2019 25.5 (15:40) 13.1 (00:00) 19.3 12.78 (17:20) 9.72 (18:20) 0 0 0 0 0
17-06-2019 29.2 (18:00) 14.3 (00:00) 21.8 11.11 (19:00) 7.78 (18:40) 0 0 0 0 0
16-06-2019 29.4 (17:50) 13.6 (00:00) 21.5 14.17 (19:00) 8.06 (19:20) 0 0 0 0 0

Gráficas

Temp. máximas Temp. mínimas Temp. medias Precipitaciones Rachas de viento máximas Velocidades máximas media en intervalos de 10 minutos

Datos horarios

Fecha y hora oficial Temperatura (ºC) Velocidad del viento (km/h) Dirección del viento Racha (km/h) Dirección de racha Precipitación (mm) Presión (hPa) Tendencia (hPa) Humedad (%)
2019-07-15 23:00:00 27.1 13 Oeste 23 Oeste 0 -- -- 39
2019-07-15 22:00:00 28.9 20 Oeste 28 Oeste 0 -- -- 36
2019-07-15 21:00:00 31 21 Oeste 34 Oeste 0 -- -- 33
2019-07-15 20:00:00 32.5 22 Oeste 31 Oeste 0 -- -- 31
2019-07-15 19:00:00 33.4 19 Oeste 32 Oeste 0 -- -- 32
2019-07-15 18:00:00 33.8 21 Oeste 36 Oeste 0 -- -- 31
2019-07-15 17:00:00 33.9 18 Oeste 31 Oeste 0 -- -- 32
2019-07-15 16:00:00 33.4 17 Oeste 37 Oeste 0 -- -- 32
2019-07-15 15:00:00 32.6 14 Noroeste 30 Noroeste 0 -- -- 33
2019-07-15 14:00:00 31.3 10 Noroeste 27 Noroeste 0 -- -- 35
2019-07-15 13:00:00 30.4 13 Oeste 19 Oeste 0 -- -- 35
2019-07-15 12:00:00 28.2 9 Oeste 14 Noroeste 0 -- -- 40
2019-07-15 11:00:00 25.2 4 Sudoeste 10 Oeste 0 -- -- 47
2019-07-15 10:00:00 22.1 5 Oeste 9 Oeste 0 -- -- 65
2019-07-15 09:00:00 18.8 4 Sudoeste 7 Oeste 0 -- -- 78
2019-07-15 08:00:00 17.2 8 Oeste 12 Oeste 0 -- -- 81
2019-07-15 07:00:00 17.4 9 Oeste 12 Oeste 0 -- -- 81
2019-07-15 06:00:00 17.8 8 Sudoeste 14 Oeste 0 -- -- 79
2019-07-15 05:00:00 18.3 13 Oeste 16 Sudoeste 0 -- -- 76
2019-07-15 04:00:00 19.3 12 Sudoeste 15 Sudoeste 0 -- -- 72
2019-07-15 03:00:00 20.1 13 Sudoeste 15 Sudoeste 0 -- -- 68
2019-07-15 02:00:00 21.3 12 Sudoeste 19 Oeste 0 -- -- 64
2019-07-15 01:00:00 22.6 15 Sudoeste 24 Oeste 0 -- -- 60
2019-07-15 00:00:00 24.3 20 Oeste 28 Oeste 0 -- -- 56
2019-07-14 23:00:00 25.9 24 Oeste 40 Oeste 0 -- -- 50
2019-07-14 22:00:00 28.2 23 Oeste 36 Oeste 0 -- -- 39
2019-07-14 21:00:00 30.1 26 Oeste 41 Oeste 0 -- -- 34
2019-07-14 20:00:00 31.3 24 Oeste 37 Oeste 0 -- -- 32
2019-07-14 19:00:00 32.3 20 Noroeste 32 Noroeste 0 -- -- 31
2019-07-14 18:00:00 32.1 14 Oeste 28 Sudoeste 0 -- -- 31
2019-07-14 17:00:00 31.7 17 Oeste 31 Noroeste 0 -- -- 30
2019-07-14 16:00:00 30.2 10 Noroeste 24 Oeste 0 -- -- 33
2019-07-14 15:00:00 28.9 10 Oeste 26 Noroeste 0 -- -- 37
2019-07-14 14:00:00 27.3 8 Oeste 19 Oeste 0 -- -- 42
2019-07-14 13:00:00 25.1 8 Sudoeste 15 Oeste 0 -- -- 45
2019-07-14 12:00:00 21.7 7 Oeste 17 Oeste 0 -- -- 59
2019-07-14 11:00:00 19.3 10 Oeste 19 Oeste 0 -- -- 69
2019-07-14 10:00:00 17.6 12 Noroeste 19 Oeste 0 -- -- 77
2019-07-14 09:00:00 16.8 12 Oeste 17 Oeste 0 -- -- 77
2019-07-14 08:00:00 15.4 8 Sudoeste 12 Sudoeste 0 -- -- 80
2019-07-14 07:00:00 15.4 10 Sudoeste 13 Oeste 0 -- -- 79
2019-07-14 06:00:00 16.3 4 Sudoeste 17 Oeste 0 -- -- 77
2019-07-14 05:00:00 17.1 12 Oeste 21 Oeste 0 -- -- 73
2019-07-14 04:00:00 18 15 Oeste 21 Oeste 0 -- -- 69
2019-07-14 03:00:00 19 17 Oeste 22 Oeste 0 -- -- 63
2019-07-14 02:00:00 19.7 11 Sudoeste 19 Oeste 0 -- -- 63
2019-07-14 01:00:00 21.1 15 Oeste 25 Noroeste 0 -- -- 62
2019-07-14 00:00:00 22.3 22 Noroeste 29 Oeste 0 -- -- 56
2019-07-13 23:00:00 23.3 15 Oeste 26 Oeste 0 -- -- 47
2019-07-13 22:00:00 24.5 21 Oeste 36 Noroeste 0 -- -- 43
2019-07-13 21:00:00 26.1 27 Oeste 38 Oeste 0 -- -- 40
2019-07-13 20:00:00 27.3 25 Oeste 37 Oeste 0 -- -- 37
2019-07-13 19:00:00 28 24 Oeste 41 Oeste 0 -- -- 36
2019-07-13 18:00:00 28.1 23 Oeste 39 Sudoeste 0 -- -- 35
2019-07-13 17:00:00 28.1 19 Oeste 38 Sudoeste 0 -- -- 36
2019-07-13 16:00:00 27.3 28 Oeste 43 Sudoeste 0 -- -- 39
2019-07-13 15:00:00 26.3 19 Sudoeste 32 Sudoeste 0 -- -- 42
2019-07-13 14:00:00 25.9 17 Sudoeste 32 Sudoeste 0 -- -- 41
2019-07-13 13:00:00 23.8 13 Sudoeste 28 Sudoeste 0 -- -- 49
2019-07-13 12:00:00 21.8 11 Sudoeste 27 Sudoeste 0 -- -- 56
2019-07-13 11:00:00 20.8 17 Oeste 24 Sudoeste 0 -- -- 63
2019-07-13 10:00:00 18.6 10 Sudoeste 21 Oeste 0 -- -- 74
2019-07-13 09:00:00 17.2 12 Oeste 19 Oeste 0 -- -- 81
2019-07-13 08:00:00 15.8 10 Oeste 15 Oeste 0 -- -- 78
2019-07-13 07:00:00 17.4 5 Noroeste 6 Noroeste 0 -- -- 71
2019-07-13 06:00:00 18 4 Noroeste 8 Oeste 0 -- -- 67
2019-07-13 05:00:00 19.1 4 Noroeste 15 Oeste 0 -- -- 60
2019-07-13 04:00:00 20.2 3 Oeste 19 Oeste 0 -- -- 60
2019-07-13 03:00:00 21.7 12 Sudeste 20 Sur 0 -- -- 60
2019-07-13 02:00:00 23.2 18 Sur 37 Sur 0 -- -- 54
2019-07-13 01:00:00 23.8 15 Sur 35 Sur 0 -- -- 54
2019-07-13 00:00:00 24.4 25 Sudoeste 35 Sudoeste 0 -- -- 52
2019-07-12 23:00:00 25.9 10 Sudoeste 34 Sur 0 -- -- 46
2019-07-12 22:00:00 27.5 19 Sudoeste 31 Sur 0 -- -- 43
2019-07-12 21:00:00 29.6 18 Sur 29 Sudeste 0 -- -- 36
2019-07-12 20:00:00 30.9 21 Sudeste 41 Este 0 -- -- 32
2019-07-12 19:00:00 31.2 15 Sudeste 33 Sur 0 -- -- 31
2019-07-12 18:00:00 32 22 Sudeste 32 Sur 0 -- -- 30
2019-07-12 17:00:00 32.7 17 Sudeste 39 Sur 0 -- -- 28
2019-07-12 16:00:00 34 21 Sur 32 Sudeste 0 -- -- 24
2019-07-12 15:00:00 34.2 9 Este 24 Sudeste 0 -- -- 27
2019-07-12 14:00:00 31.6 12 Sudeste 22 Sudeste 0 -- -- 31
2019-07-12 13:00:00 27.8 9 Sudeste 23 Este 0 -- -- 38
2019-07-12 12:00:00 26.7 16 Este 21 Este 0 -- -- 41
2019-07-12 11:00:00 26.4 14 Sudeste 32 Este 0 -- -- 41
2019-07-12 10:00:00 24.6 23 Este 31 Este 0 -- -- 47
2019-07-12 09:00:00 22.7 21 Este 26 Este 0 -- -- 52
2019-07-12 08:00:00 21.9 15 Este 26 Este 0 -- -- 51
2019-07-12 07:00:00 21.4 20 Este 27 Este 0 -- -- 55
2019-07-12 06:00:00 20.9 11 Este 16 Este 0 -- -- 56
2019-07-12 05:00:00 21.4 7 Oeste 12 Oeste 0 -- -- 56
2019-07-12 04:00:00 21.5 12 Oeste 18 Oeste 0 -- -- 56
2019-07-12 03:00:00 22.4 14 Oeste 17 Oeste 0 -- -- 52
2019-07-12 02:00:00 24.1 15 Oeste 23 Oeste 0 -- -- 46
2019-07-12 01:00:00 25.7 22 Sudoeste 32 Oeste 0 -- -- 42
2019-07-12 00:00:00 27.1 17 Oeste 22 Oeste 0 -- -- 39
2019-07-11 23:00:00 29.5 14 Oeste 21 Oeste 0 -- -- 33
2019-07-11 22:00:00 32.6 7 Sur 21 Sudeste 0 -- -- 23
2019-07-11 21:00:00 35.1 18 Sur 24 Sur 0 -- -- 21
2019-07-11 20:00:00 36.3 17 Sudeste 27 Sudeste 0 -- -- 20
2019-07-11 19:00:00 37 13 Sudeste 35 Sudeste 0 -- -- 20
2019-07-11 18:00:00 37.6 22 Sur 35 Sur 0 -- -- 19
2019-07-11 17:00:00 37.7 17 Sudeste 32 Sudeste 0 -- -- 19
2019-07-11 16:00:00 37.1 12 Este 37 Sudeste 0 -- -- 19
2019-07-11 15:00:00 35.9 13 Este 32 Este 0 -- -- 20
2019-07-11 14:00:00 34.9 22 Este 33 Este 0 -- -- 22
2019-07-11 13:00:00 33.5 8 Este 24 Este 0 -- -- 24
2019-07-11 12:00:00 31 5 Norte 12 Este 0 -- -- 30
2019-07-11 11:00:00 28 3 Norte 12 Sudoeste 0 -- -- 36
2019-07-11 10:00:00 26.3 3 Oeste 8 Este 0 -- -- 37
2019-07-11 09:00:00 23.5 7 Este 10 Sudeste 0 -- -- 40
2019-07-11 08:00:00 22 10 Este 23 Este 0 -- -- 42
2019-07-11 07:00:00 20.3 22 Este 24 Este 0 -- -- 40
2019-07-11 06:00:00 22.6 8 Sudeste 12 Sudeste 0 -- -- 39
2019-07-11 05:00:00 23.2 8 Sudeste 14 Sudeste 0 -- -- 40
2019-07-11 04:00:00 23.7 4 Sudeste 8 Este 0 -- -- 41
2019-07-11 03:00:00 24 4 Sudoeste 7 Sur 0 -- -- 39
2019-07-11 02:00:00 24.5 6 Sur 9 Oeste 0 -- -- 34
2019-07-11 01:00:00 25.9 6 Sur 17 Este 0 -- -- 32
2019-07-11 00:00:00 25.4 13 Nordeste 21 Nordeste 0 -- -- 32
2019-07-10 23:00:00 27.8 14 Nordeste 24 Nordeste 0 -- -- 29
2019-07-10 22:00:00 30.2 9 Sudeste 12 Sudeste 0 -- -- 24
2019-07-10 21:00:00 33.1 6 Sudeste 18 Este 0 -- -- 21
2019-07-10 20:00:00 32.9 8 Sudeste 26 Sur 0 -- -- 20
2019-07-10 19:00:00 33.5 9 Sudeste 22 Este 0 -- -- 20
2019-07-10 18:00:00 33.5 15 Sudeste 29 Sudeste 0 -- -- 21
2019-07-10 17:00:00 32.9 10 Nordeste 24 Nordeste 0 -- -- 23
2019-07-10 16:00:00 32.4 13 Este 28 Este 0 -- -- 24
2019-07-10 15:00:00 32.4 13 Nordeste 28 Este 0 -- -- 24
2019-07-10 14:00:00 30.7 14 Sudeste 34 Este 0 -- -- 26
2019-07-10 13:00:00 30.1 20 Nordeste 32 Este 0 -- -- 27
2019-07-10 12:00:00 29.7 17 Este 32 Este 0 -- -- 29
2019-07-10 11:00:00 28.1 16 Nordeste 25 Nordeste 0 -- -- 33
2019-07-10 10:00:00 25.2 8 Nordeste 13 Nordeste 0 -- -- 42
2019-07-10 09:00:00 22 7 Nordeste 9 Nordeste 0 -- -- 60
2019-07-10 08:00:00 19.8 4 Nordeste 5 Nordeste 0 -- -- 66
2019-07-10 07:00:00 18.7 3 Oeste 7 Sudoeste 0 -- -- 70
2019-07-10 06:00:00 18.6 5 Sudoeste 8 Sudoeste 0 -- -- 67
2019-07-10 05:00:00 18.9 6 Sudoeste 10 Sudoeste 0 -- -- 63
2019-07-10 04:00:00 19.2 9 Sudoeste 12 Sudoeste 0 -- -- 57
2019-07-10 03:00:00 19.9 7 Sudoeste 14 Oeste 0 -- -- 48
2019-07-10 02:00:00 22 4 Sudeste 8 Sudeste 0 -- -- 46
2019-07-10 01:00:00 22.7 6 Sudeste 13 Sudeste 0 -- -- 42
2019-07-10 00:00:00 23.6 8 Sudeste 12 Sudeste 0 -- -- 37
2019-07-09 23:00:00 24.1 5 Norte -- -- 0 -- -- 36
2019-07-09 22:00:00 25 8 Norte 18 Norte 0 -- -- 34
2019-07-09 21:00:00 27.4 12 Norte 24 Norte 0 -- -- 30
2019-07-09 20:00:00 28.3 17 Norte 23 Norte 0 -- -- 29
2019-07-09 19:00:00 28.1 10 Noroeste 26 Noroeste 0 -- -- 30
2019-07-09 18:00:00 28.2 9 Norte 27 Noroeste 0 -- -- 33
2019-07-09 17:00:00 27.9 13 Norte 30 Noroeste 0 -- -- 35
2019-07-09 16:00:00 27.6 7 Oeste 33 Oeste 0 -- -- 33
2019-07-09 15:00:00 26.7 14 Noroeste 30 Oeste 0 -- -- 34
2019-07-09 14:00:00 25.7 14 Noroeste 25 Sudoeste 0 -- -- 36
2019-07-09 13:00:00 23.7 12 Oeste 35 Sudoeste 0 -- -- 42
2019-07-09 12:00:00 21.9 11 Oeste 18 Sudoeste 0 -- -- 48
2019-07-09 11:00:00 19.5 5 Noroeste 16 Oeste 0 -- -- 65
2019-07-09 10:00:00 17.4 8 Noroeste 12 Noroeste 0 -- -- 77
2019-07-09 09:00:00 15.5 9 Sudoeste 12 Oeste 0 -- -- 88
2019-07-09 08:00:00 13.9 9 Sudoeste 11 Sudoeste 0 -- -- 92
2019-07-09 07:00:00 13.6 9 Oeste 12 Oeste 0 -- -- 91
2019-07-09 06:00:00 13.9 8 Sudoeste 13 Sudoeste 0 -- -- 90
2019-07-09 05:00:00 14.1 10 Sudoeste 18 Oeste 0 -- -- 85
2019-07-09 04:00:00 15 15 Oeste 17 Oeste 0 -- -- 83
2019-07-09 03:00:00 16.1 12 Oeste 21 Oeste 0 -- -- 78
2019-07-09 02:00:00 17 16 Oeste 26 Oeste 0 -- -- 74
2019-07-09 01:00:00 18.1 17 Oeste 23 Oeste 0 -- -- 69
2019-07-09 00:00:00 19.4 11 Oeste 17 Oeste 0 -- -- 54
2019-07-08 23:00:00 20.5 12 Oeste 31 Oeste 0 -- -- 47
2019-07-08 22:00:00 21.9 23 Oeste 35 Oeste 0 -- -- 44
2019-07-08 21:00:00 23.8 26 Oeste 38 Oeste 0 -- -- 38
2019-07-08 20:00:00 24.6 27 Oeste 37 Oeste 0 -- -- 35
2019-07-08 19:00:00 25.2 21 Oeste 37 Oeste 0 -- -- 36
2019-07-08 18:00:00 25.1 22 Oeste 43 Oeste 0 -- -- 37
2019-07-08 17:00:00 24.2 22 Oeste 39 Oeste 0 -- -- 38
2019-07-08 16:00:00 23.5 22 Oeste 36 Oeste 0 -- -- 41
2019-07-08 15:00:00 24.3 26 Oeste 36 Oeste 0 -- -- 40
2019-07-08 14:00:00 22.1 15 Oeste 29 Oeste 0 -- -- 49
2019-07-08 13:00:00 20.5 13 Noroeste 32 Oeste 0 -- -- 58
2019-07-08 12:00:00 19.9 17 Oeste 28 Noroeste 0 -- -- 62
2019-07-08 11:00:00 18.3 9 Noroeste 18 Oeste 0 -- -- 68
2019-07-08 10:00:00 16.5 9 Oeste 16 Oeste 0 -- -- 78
2019-07-08 09:00:00 14.8 13 Oeste 19 Oeste 0 -- -- 84
2019-07-08 08:00:00 13.9 6 Sudoeste 8 Sudoeste 0 -- -- 85
2019-07-08 07:00:00 13.4 5 Sur 10 Sudoeste 0 -- -- 86
2019-07-08 06:00:00 13.4 7 Sudoeste 12 Sudoeste 0 -- -- 84
2019-07-08 05:00:00 14.1 9 Sudoeste 14 Sudoeste 0 -- -- 80
2019-07-08 04:00:00 14.8 9 Sudoeste 17 Oeste 0 -- -- 76
2019-07-08 03:00:00 15.9 12 Oeste 27 Oeste 0 -- -- 72
2019-07-08 02:00:00 17.1 17 Oeste 23 Oeste 0 -- -- 65
2019-07-08 01:00:00 18.3 17 Oeste 23 Oeste 0 -- -- 58
2019-07-08 00:00:00 19.8 19 Oeste 30 Oeste 0 -- -- 53
2019-07-07 23:00:00 21.3 17 Oeste 30 Oeste 0 -- -- 50
2019-07-07 22:00:00 22.6 23 Oeste 38 Oeste 0 -- -- 47
2019-07-07 21:00:00 25.3 30 Oeste 42 Oeste 0 -- -- 38
2019-07-07 20:00:00 26.5 30 Oeste 44 Oeste 0 -- -- 37
2019-07-07 19:00:00 27.9 28 Oeste 44 Oeste 0 -- -- 34
2019-07-07 18:00:00 29 23 Oeste 39 Oeste 0 -- -- 32
2019-07-07 17:00:00 28.9 19 Noroeste 41 Oeste 0 -- -- 31
2019-07-07 16:00:00 29.9 23 Oeste 39 Oeste 0 -- -- 30
2019-07-07 15:00:00 27.9 12 Noroeste 24 Sur 0 -- -- 37
2019-07-07 14:00:00 26.6 6 Sudoeste 24 Sudoeste 0 -- -- 42
2019-07-07 13:00:00 24.3 9 Noroeste 17 Oeste 0 -- -- 49
2019-07-07 12:00:00 22.8 5 Norte 15 Noroeste 0 -- -- 55
2019-07-07 11:00:00 19.7 11 Noroeste 15 Oeste 0 -- -- 67
2019-07-07 10:00:00 18.7 3 Nordeste 13 Noroeste 0 -- -- 73
2019-07-07 09:00:00 16.1 5 Noroeste 9 Noroeste 0 -- -- 83
2019-07-07 08:00:00 15 2 Sudoeste 8 Oeste 0 -- -- 87
2019-07-07 07:00:00 13.9 7 Oeste 9 Sudoeste 0 -- -- 88
2019-07-07 06:00:00 14.1 4 Oeste 11 Sudoeste 0 -- -- 87
2019-07-07 05:00:00 14.9 9 Sudoeste 10 Oeste 0 -- -- 83
2019-07-07 04:00:00 15.5 11 Oeste 18 Oeste 0 -- -- 81
2019-07-07 03:00:00 16.5 12 Oeste 21 Oeste 0 -- -- 74
2019-07-07 02:00:00 17.9 17 Oeste 26 Oeste 0 -- -- 68
2019-07-07 01:00:00 19.5 19 Oeste 31 Oeste 0 -- -- 58
2019-07-07 00:00:00 21.3 23 Oeste 31 Oeste 0 -- -- 50
2019-07-06 23:00:00 22.8 13 Sudoeste 24 Oeste 0 -- -- 36
2019-07-06 22:00:00 25 19 Oeste 31 Oeste 0 -- -- 34
2019-07-06 21:00:00 27.3 27 Noroeste 37 Noroeste 0 -- -- 29
2019-07-06 20:00:00 29 28 Noroeste 50 Noroeste 0 -- -- 29
2019-07-06 19:00:00 30.1 22 Noroeste 40 Oeste 0 -- -- 29
2019-07-06 18:00:00 30.2 23 Noroeste 36 Noroeste 0 -- -- 31
2019-07-06 17:00:00 31 15 Oeste 32 Oeste 0 -- -- 29
2019-07-06 16:00:00 29.5 15 Noroeste 36 Noroeste 0 -- -- 33
2019-07-06 15:00:00 28.6 20 Noroeste 35 Oeste 0 -- -- 36
2019-07-06 14:00:00 27.3 14 Oeste 25 Norte 0 -- -- 38
2019-07-06 13:00:00 25.7 8 Oeste 18 Oeste 0 -- -- 42
2019-07-06 12:00:00 23.7 6 Oeste 15 Oeste 0 -- -- 48
2019-07-06 11:00:00 21 6 Noroeste 12 Noroeste 0 -- -- 58
2019-07-06 10:00:00 18.4 6 Norte 10 Noroeste 0 -- -- 68
2019-07-06 09:00:00 16.6 5 Noroeste 8 Oeste 0 -- -- 71
2019-07-06 08:00:00 15.7 2 Oeste 4 Noroeste 0 -- -- 76
2019-07-06 07:00:00 14.7 0 Calma 8 Sudoeste 0 -- -- 80
2019-07-06 06:00:00 14.9 5 Sudoeste 9 Sudoeste 0 -- -- 75
2019-07-06 05:00:00 15.2 7 Sudoeste 11 Oeste 0 -- -- 72
2019-07-06 04:00:00 16.1 9 Oeste 12 Oeste 0 -- -- 69
2019-07-06 03:00:00 17.1 11 Oeste 14 Oeste 0 -- -- 65
2019-07-06 02:00:00 18.4 13 Oeste 16 Oeste 0 -- -- 57
2019-07-06 01:00:00 20.3 17 Oeste 22 Oeste 0 -- -- 46
2019-07-06 00:00:00 22.2 5 Sudoeste 14 Oeste 0 -- -- 41
2019-07-05 23:00:00 23.2 13 Oeste 24 Oeste 0 -- -- 39
2019-07-05 22:00:00 25.4 21 Noroeste 31 Noroeste 0 -- -- 35
2019-07-05 21:00:00 28.7 14 Oeste 27 Sudoeste 0 -- -- 29
2019-07-05 20:00:00 30 17 Sudoeste 36 Sudoeste 0 -- -- 24
2019-07-05 19:00:00 30.8 22 Sudoeste 41 Sudoeste 0 -- -- 23
2019-07-05 18:00:00 31.1 24 Sudoeste 40 Sur 0 -- -- 23
2019-07-05 17:00:00 30.8 25 Sudoeste 40 Sudoeste 0 -- -- 24
2019-07-05 16:00:00 30.1 18 Sudoeste 33 Oeste 0 -- -- 27
2019-07-05 15:00:00 28.2 12 Noroeste 24 Norte 0 -- -- 33
2019-07-05 14:00:00 26.9 12 Noroeste 22 Noroeste 0 -- -- 36
2019-07-05 13:00:00 24.7 5 Oeste 18 Oeste 0 -- -- 41
2019-07-05 12:00:00 22.7 4 Norte 13 Norte 0 -- -- 48
2019-07-05 11:00:00 20.9 7 Sur 13 Sur 0 -- -- 54
2019-07-05 10:00:00 18.6 6 Sudeste 12 Sudeste 0 -- -- 62
2019-07-05 09:00:00 15.6 2 Sur 4 Sur 0 -- -- 72
2019-07-05 08:00:00 13.8 4 Sur 5 Sudeste 0 -- -- 80
2019-07-05 07:00:00 13.1 3 Sur 5 Oeste 0 -- -- 83
2019-07-05 06:00:00 13.3 5 Oeste 8 Oeste 0 -- -- 81
2019-07-05 05:00:00 14.2 6 Oeste 10 Sudoeste 0 -- -- 77
2019-07-05 04:00:00 15 6 Sudoeste 14 Sudoeste 0 -- -- 74
2019-07-05 03:00:00 16 9 Sudoeste 14 Oeste 0 -- -- 70
2019-07-05 02:00:00 17.8 4 Sudoeste 17 Sudeste 0 -- -- 60
2019-07-05 01:00:00 19.3 13 Sudeste 16 Sudeste 0 -- -- 54
2019-07-05 00:00:00 20.8 5 Sudoeste 18 Sudoeste 0 -- -- 50
2019-07-04 23:00:00 21.7 9 Oeste 19 Sur 0 -- -- 45
2019-07-04 22:00:00 23.8 15 Sur 26 Sur 0 -- -- 40
2019-07-04 21:00:00 25.9 18 Sur 28 Sur 0 -- -- 36
2019-07-04 20:00:00 27 19 Sur 32 Sur 0 -- -- 36
2019-07-04 19:00:00 27.9 19 Sur 41 Sur 0 -- -- 34
2019-07-04 18:00:00 28.2 17 Sur 30 Sur 0 -- -- 29
2019-07-04 17:00:00 27.5 20 Sudoeste 32 Sur 0 -- -- 31
2019-07-04 16:00:00 27 18 Sudeste 32 Sur 0 -- -- 34
2019-07-04 15:00:00 26.1 10 Sudeste 24 Sur 0 -- -- 36
2019-07-04 14:00:00 24.7 13 Sudoeste 25 Sudoeste 0 -- -- 41
2019-07-04 13:00:00 21.3 9 Sur 22 Sudeste 0 -- -- 50
2019-07-04 12:00:00 20 13 Sur 26 Sur 0 -- -- 53
2019-07-04 11:00:00 19 14 Sur 30 Sudeste 0 -- -- 59
2019-07-04 10:00:00 17.6 16 Sur 37 Sudeste 0 -- -- 67
2019-07-04 09:00:00 16.2 28 Sudeste 36 Sudeste 0 -- -- 76
2019-07-04 08:00:00 15.5 18 Sudeste 28 Sudeste 0 -- -- 80
2019-07-04 07:00:00 14.9 9 Sudeste 24 Sudeste 0 -- -- 85
2019-07-04 06:00:00 14 17 Sudeste 20 Sudeste 0 -- -- 88
2019-07-04 05:00:00 14.6 13 Sudeste 18 Sudeste 0 -- -- 84
2019-07-04 04:00:00 16.2 15 Sudeste 24 Sudeste 0 -- -- 78
2019-07-04 03:00:00 16.8 14 Sudeste 20 Sudeste 0 -- -- 75
2019-07-04 02:00:00 17.9 12 Sudeste 19 Sudeste 0 -- -- 70
2019-07-04 01:00:00 19.2 12 Sudeste 17 Sudeste 0 -- -- 64
2019-07-04 00:00:00 20.4 7 Sur 17 Sur 0 -- -- 57
2019-07-03 23:00:00 22.1 13 Sur 19 Sudoeste 0 -- -- 49
2019-07-03 22:00:00 23.9 12 Sudoeste 27 Sur 0 -- -- 42
2019-07-03 21:00:00 26.1 23 Sur 32 Sur 0 -- -- 37
2019-07-03 20:00:00 27.1 23 Sur 33 Sur 0 -- -- 36
2019-07-03 19:00:00 28.4 18 Sur 36 Sudeste 0 -- -- 30
2019-07-03 18:00:00 28.8 20 Sudeste 39 Sudeste 0 -- -- 33
2019-07-03 17:00:00 29 23 Sur 39 Sur 0 -- -- 32
2019-07-03 16:00:00 28.4 21 Sur 44 Sur 0 -- -- 35
2019-07-03 15:00:00 27.7 17 Sur 35 Sur 0 -- -- 38
2019-07-03 14:00:00 27.4 22 Sur 33 Sur 0 -- -- 40
2019-07-03 13:00:00 26.6 17 Sur 30 Sur 0 -- -- 39
2019-07-03 12:00:00 24.5 22 Sudeste 33 Sur 0 -- -- 44
2019-07-03 11:00:00 22 19 Sudeste 32 Sudeste 0 -- -- 51
2019-07-03 10:00:00 20 24 Sudeste 30 Sudeste 0 -- -- 51
2019-07-03 09:00:00 17.6 17 Este 23 Este 0 -- -- 71
2019-07-03 08:00:00 15 17 Este 25 Este 0 -- -- 80
2019-07-03 07:00:00 15.4 15 Este 26 Este 0 -- -- 76
2019-07-03 06:00:00 16.4 17 Este 23 Este 0 -- -- 72
2019-07-03 05:00:00 17.1 4 Sur 6 Sudoeste 0 -- -- 67
2019-07-03 04:00:00 17.7 4 Sur 8 Sudoeste 0 -- -- 63
2019-07-03 03:00:00 18.5 8 Sudoeste 12 Sudoeste 0 -- -- 58
2019-07-03 02:00:00 19.7 9 Sudoeste 14 Oeste 0 -- -- 52
2019-07-03 01:00:00 21.8 12 Oeste 15 Oeste 0 -- -- 41
2019-07-03 00:00:00 23.4 5 Sudoeste 15 Oeste 0 -- -- 38
2019-07-02 23:00:00 24.4 14 Oeste 23 Oeste 0 -- -- 36
2019-07-02 22:00:00 26.5 21 Oeste 30 Oeste 0 -- -- 32
2019-07-02 21:00:00 30.2 18 Sudoeste 33 Sudoeste 0 -- -- 27
2019-07-02 20:00:00 31.4 19 Sudoeste 31 Sudoeste 0 -- -- 25
2019-07-02 19:00:00 32 22 Sudoeste 34 Sur 0 -- -- 25
2019-07-02 18:00:00 32.3 25 Sur 36 Sudoeste 0 -- -- 25
2019-07-02 17:00:00 32 21 Sur 59 Sur 0 -- -- 26
2019-07-02 16:00:00 31.5 12 Sur 37 Sur 0 -- -- 27
2019-07-02 15:00:00 31.5 15 Sur 31 Sur 0 -- -- 27
2019-07-02 14:00:00 29.6 9 Sur 23 Oeste 0 -- -- 30
2019-07-02 13:00:00 27.4 10 Noroeste 21 Noroeste 0 -- -- 35
2019-07-02 12:00:00 24.3 9 Oeste 15 Oeste 0 -- -- 47
2019-07-02 11:00:00 20.9 7 Noroeste 12 Oeste 0 -- -- 57
2019-07-02 10:00:00 17.9 6 Noroeste 13 Oeste 0 -- -- 70
2019-07-02 09:00:00 15.6 6 Oeste 12 Oeste 0 -- -- 79
2019-07-02 08:00:00 14 -- -- -- -- 0 -- -- 83
2019-07-02 07:00:00 14 4 Noroeste 12 Oeste 0 -- -- 84
2019-07-02 06:00:00 14.9 7 Oeste 9 Oeste 0 -- -- 80
2019-07-02 05:00:00 15.7 4 Sudoeste 10 Sudoeste 0 -- -- 77
2019-07-02 04:00:00 16.3 10 Oeste 14 Oeste 0 -- -- 70
2019-07-02 03:00:00 17.9 14 Oeste 21 Oeste 0 -- -- 65
2019-07-02 02:00:00 19.4 14 Oeste 21 Oeste 0 -- -- 58
2019-07-02 01:00:00 20.7 11 Oeste 18 Oeste 0 -- -- 49
2019-07-02 00:00:00 22.4 15 Oeste 20 Oeste 0 -- -- 41
2019-07-01 23:00:00 24.3 15 Oeste 27 Oeste 0 -- -- 33
2019-07-01 22:00:00 26.3 21 Oeste 33 Oeste 0 -- -- 29
2019-07-01 21:00:00 28.5 27 Oeste 36 Oeste 0 -- -- 26
2019-07-01 20:00:00 30 27 Oeste 39 Noroeste 0 -- -- 23
2019-07-01 19:00:00 31 25 Oeste 41 Noroeste 0 -- -- 25
2019-07-01 18:00:00 31.3 24 Oeste 39 Oeste 0 -- -- 28
2019-07-01 17:00:00 30.6 19 Noroeste 32 Oeste 0 -- -- 31
2019-07-01 16:00:00 30.1 17 Oeste 36 Oeste 0 -- -- 34
2019-07-01 15:00:00 29.5 21 Noroeste 33 Noroeste 0 -- -- 36
2019-07-01 14:00:00 28.5 21 Noroeste 33 Noroeste 0 -- -- 39
2019-07-01 13:00:00 27.5 14 Noroeste 24 Noroeste 0 -- -- 41
2019-07-01 12:00:00 26.3 13 Oeste 22 Oeste 0 -- -- 42
2019-07-01 11:00:00 23.1 5 Noroeste 11 Oeste 0 -- -- 46
2019-07-01 10:00:00 20 6 Oeste 12 Noroeste 0 -- -- 55
2019-07-01 09:00:00 18.3 8 Oeste 10 Noroeste 0 -- -- 62
2019-07-01 08:00:00 16.5 8 Oeste 11 Sudoeste 0 -- -- 69
2019-07-01 07:00:00 16.6 8 Sudoeste 10 Sudoeste 0 -- -- 70
2019-07-01 06:00:00 17.6 8 Sudoeste 9 Sudoeste 0 -- -- 68
2019-07-01 05:00:00 18.2 6 Oeste 9 Oeste 0 -- -- 65
2019-07-01 04:00:00 18.7 9 Oeste 10 Oeste 0 -- -- 63
2019-07-01 03:00:00 19.5 6 Oeste 15 Noroeste 0 -- -- 61
2019-07-01 02:00:00 20.7 11 Noroeste 21 Noroeste 0 -- -- 58
2019-07-01 01:00:00 21.7 17 Noroeste 28 Norte 0 -- -- 56
2019-07-01 00:00:00 24.7 14 Oeste 24 Noroeste 0 -- -- 48
2019-06-30 23:00:00 26.6 14 Oeste 24 Oeste 0 -- -- 39
2019-06-30 22:00:00 28.3 22 Oeste 36 Oeste 0 -- -- 36
2019-06-30 21:00:00 30.3 24 Oeste 36 Oeste 0 -- -- 35
2019-06-30 20:00:00 32.1 23 Oeste 42 Noroeste 0 -- -- 34
2019-06-30 19:00:00 32.4 20 Noroeste 39 Oeste 0 -- -- 35
2019-06-30 18:00:00 33 17 Sudoeste 32 Sudoeste 0 -- -- 34
2019-06-30 17:00:00 33.7 12 Sudoeste 31 Sudoeste 0 -- -- 33
2019-06-30 16:00:00 33.7 19 Sudoeste 32 Sudoeste 0 -- -- 31
2019-06-30 15:00:00 32.5 15 Sudoeste 26 Sudoeste 0 -- -- 33
2019-06-30 14:00:00 31.3 13 Sudoeste 26 Sudoeste 0 -- -- 36
2019-06-30 13:00:00 29.7 10 Sudoeste 24 Sudoeste 0 -- -- 40
2019-06-30 12:00:00 28.2 14 Sudoeste 25 Sudoeste 0 -- -- 45
2019-06-30 11:00:00 26.5 8 Sudoeste 14 Sudoeste 0 -- -- 51
2019-06-30 10:00:00 24.2 5 Noroeste 11 Noroeste 0 -- -- 56
2019-06-30 09:00:00 22.4 6 Sur 18 Sudeste 0 -- -- 63
2019-06-30 08:00:00 20.5 12 Sudeste 18 Este 0 -- -- 67
2019-06-30 07:00:00 21.4 11 Este 15 Este 0 -- -- 63
2019-06-30 06:00:00 21.9 10 Sudeste 21 Sudeste 0 -- -- 58
2019-06-30 05:00:00 22.4 12 Sudeste 20 Sudeste 0 -- -- 52
2019-06-30 04:00:00 22.5 19 Sudeste 23 Sudeste 0 -- -- 50
2019-06-30 03:00:00 23.5 9 Sudeste 23 Sur 0 -- -- 49
2019-06-30 02:00:00 24.1 17 Sur 28 Sur 0 -- -- 48
2019-06-30 01:00:00 24.5 8 Oeste 25 Sudoeste 0 -- -- 51
2019-06-30 00:00:00 25.7 13 Oeste 22 Sudoeste 0 -- -- 46
2019-06-29 23:00:00 28.1 19 Sudoeste 29 Oeste 0 -- -- 40
2019-06-29 22:00:00 30.5 21 Oeste 35 Oeste 0 -- -- 28
2019-06-29 21:00:00 34.1 25 Oeste 31 Sudoeste 0 -- -- 26
2019-06-29 20:00:00 35.8 17 Sudoeste 31 Sur 0 -- -- 18
2019-06-29 19:00:00 36 15 Sur 33 Sudeste 0 -- -- 20
2019-06-29 18:00:00 36.7 19 Sudeste 33 Sudeste 0 -- -- 16
2019-06-29 17:00:00 36.3 18 Sudeste 34 Sudeste 0 -- -- 19
2019-06-29 16:00:00 36.5 22 Sur 36 Sur 0 -- -- 15
2019-06-29 15:00:00 35.8 19 Sudeste 34 Sur 0 -- -- 23
2019-06-29 14:00:00 34.8 8 Norte 26 Sudeste 0 -- -- 27
2019-06-29 13:00:00 33.4 15 Este 31 Sudeste 0 -- -- 29
2019-06-29 12:00:00 31.5 10 Este 16 Este 0 -- -- 33
2019-06-29 11:00:00 28.9 8 Este 13 Este 0 -- -- 39
2019-06-29 10:00:00 25.8 3 Norte 9 Noroeste 0 -- -- 47
2019-06-29 09:00:00 23.4 3 Oeste 9 Nordeste 0 -- -- 53
2019-06-29 08:00:00 21.1 4 Oeste 12 Nordeste 0 -- -- 60
2019-06-29 07:00:00 19.9 5 Sur 6 Sur 0 -- -- 66
2019-06-29 06:00:00 19.7 5 Sur 10 Oeste 0 -- -- 66
2019-06-29 05:00:00 20.4 8 Oeste 10 Sudoeste 0 -- -- 64
2019-06-29 04:00:00 21.1 8 Sudoeste 19 Sudoeste 0 -- -- 62
2019-06-29 03:00:00 22.3 16 Sudoeste 22 Oeste 0 -- -- 59
2019-06-29 02:00:00 23.7 17 Oeste 22 Oeste 0 -- -- 54
2019-06-29 01:00:00 25.1 9 Sudoeste 22 Oeste 0 -- -- 47
2019-06-29 00:00:00 27 12 Sudoeste 17 Sudoeste 0 -- -- 39
2019-06-28 23:00:00 28.5 15 Oeste 22 Oeste 0 -- -- 37
2019-06-28 22:00:00 30.5 17 Noroeste 31 Oeste 0 -- -- 34
2019-06-28 21:00:00 34.3 17 Oeste 22 Oeste 0 -- -- 27
2019-06-28 20:00:00 35.4 12 Sudoeste 26 Sudoeste 0 -- -- 24
2019-06-28 19:00:00 35.3 11 Sudeste 31 Sur 0 -- -- 23
2019-06-28 18:00:00 35.2 22 Sudeste 32 Sudeste 0 -- -- 23
2019-06-28 17:00:00 35.2 17 Sur 36 Sur 0 -- -- 23
2019-06-28 16:00:00 34.7 15 Sudeste 38 Sudeste 0 -- -- 25
2019-06-28 15:00:00 34.4 25 Sudeste 43 Sudeste 0 -- -- 24
2019-06-28 14:00:00 32.5 10 Sur 26 Este 0 -- -- 28
2019-06-28 13:00:00 30.5 7 Sur 19 Sudeste 0 -- -- 33
2019-06-28 12:00:00 28.5 8 Este 18 Nordeste 0 -- -- 35
2019-06-28 11:00:00 25.4 7 Norte 13 Norte 0 -- -- 39
2019-06-28 10:00:00 22.6 8 Noroeste 13 Norte 0 -- -- 45
2019-06-28 09:00:00 20.3 2 Norte 6 Noroeste 0 -- -- 54
2019-06-28 08:00:00 18.1 2 Oeste 8 Oeste 0 -- -- 60
2019-06-28 07:00:00 17.2 3 Oeste 8 Oeste 0 -- -- 61
2019-06-28 06:00:00 17.3 3 Sudoeste 5 Sudoeste 0 -- -- 57
2019-06-28 05:00:00 17.8 4 Oeste 7 Sudoeste 0 -- -- 56
2019-06-28 04:00:00 18.4 4 Sudoeste 9 Oeste 0 -- -- 53
2019-06-28 03:00:00 19.2 7 Oeste 12 Oeste 0 -- -- 50
2019-06-28 02:00:00 20.9 10 Oeste 15 Oeste 0 -- -- 44
2019-06-28 01:00:00 22.4 4 Sudoeste 8 Sudoeste 0 -- -- 42
2019-06-28 00:00:00 23.2 5 Sudoeste 12 Sudoeste 0 -- -- 41
2019-06-27 23:00:00 24.2 10 Oeste 19 Oeste 0 -- -- 40
2019-06-27 22:00:00 25.9 15 Oeste 26 Oeste 0 -- -- 38
2019-06-27 21:00:00 28.3 23 Noroeste 33 Oeste 0 -- -- 36
2019-06-27 20:00:00 29.9 11 Oeste 28 Sudoeste 0 -- -- 39
2019-06-27 19:00:00 30.4 11 Sudoeste 26 Sudoeste 0 -- -- 39
2019-06-27 18:00:00 30.3 13 Sudoeste 29 Sur 0 -- -- 39
2019-06-27 17:00:00 29.8 14 Oeste 32 Sur 0 -- -- 40
2019-06-27 16:00:00 29.9 19 Sur 32 Sur 0 -- -- 39
2019-06-27 15:00:00 29 17 Sur 38 Sur 0 -- -- 41
2019-06-27 14:00:00 27.7 19 Sur 39 Sudeste 0 -- -- 43
2019-06-27 13:00:00 26.4 18 Sur 32 Sudeste 0 -- -- 45
2019-06-27 12:00:00 23.6 15 Sur 26 Sur 0 -- -- 56
2019-06-27 11:00:00 22.4 12 Sudoeste 27 Sur 0 -- -- 59
2019-06-27 10:00:00 22.3 6 Sudeste 14 Este 0 -- -- 59
2019-06-27 09:00:00 19.7 2 Nordeste 12 Nordeste 0 -- -- 67
2019-06-27 08:00:00 17.1 5 Este 7 Este 0 -- -- 75
2019-06-27 07:00:00 15.8 6 Noroeste 7 Noroeste 0 -- -- 79
2019-06-27 06:00:00 16.2 4 Nordeste 9 Oeste 0 -- -- 78
2019-06-27 05:00:00 16.8 8 Oeste 12 Oeste 0 -- -- 74
2019-06-27 04:00:00 17.6 7 Oeste 13 Oeste 0 -- -- 73
2019-06-27 03:00:00 18.4 9 Noroeste 12 Noroeste 0 -- -- 67
2019-06-27 02:00:00 20 4 Sudeste 10 Este 0 -- -- 62
2019-06-27 01:00:00 20 4 Sur 15 Sur 0 -- -- 61
2019-06-27 00:00:00 21 17 Sudoeste 24 Sudoeste 0 -- -- 58
2019-06-26 23:00:00 22.4 18 Sudoeste 25 Sudoeste 0 -- -- 53
2019-06-26 22:00:00 24.3 20 Sudoeste 28 Sur 0 -- -- 47
2019-06-26 21:00:00 26.6 19 Sudoeste 31 Sur 0 -- -- 43
2019-06-26 20:00:00 27.8 21 Sur 35 Sur 0 -- -- 42
2019-06-26 19:00:00 28.4 25 Sudoeste 40 Sudoeste 0 -- -- 43
2019-06-26 18:00:00 28.8 31 Sur 45 Sur 0 -- -- 42
2019-06-26 17:00:00 28.9 23 Sur 45 Sur 0 -- -- 40
2019-06-26 16:00:00 28.7 20 Sudoeste 37 Sur 0 -- -- 39
2019-06-26 15:00:00 27.9 21 Sur 41 Sur 0 -- -- 41
2019-06-26 14:00:00 27.4 20 Sur 35 Sudoeste 0 -- -- 42
2019-06-26 13:00:00 26.2 17 Sur 30 Sur 0 -- -- 45
2019-06-26 12:00:00 25 17 Sur 30 Sur 0 -- -- 47
2019-06-26 11:00:00 23.3 18 Sudoeste 28 Sudoeste 0 -- -- 49
2019-06-26 10:00:00 21.1 5 Sudeste 13 Sudeste 0 -- -- 61
2019-06-26 09:00:00 18.8 4 Sudeste 8 Sudeste 0 -- -- 72
2019-06-26 08:00:00 17 4 Sudeste 10 Sudeste 0 -- -- 76
2019-06-26 07:00:00 16.2 8 Sudeste 12 Sudeste 0 -- -- 77
2019-06-26 06:00:00 17.1 3 Este 10 Sudeste 0 -- -- 72
2019-06-26 05:00:00 17.8 0 Calma 5 Sur 0 -- -- 73
2019-06-26 04:00:00 17.9 4 Sudoeste 12 Oeste 0 -- -- 71
2019-06-26 03:00:00 18.7 10 Oeste 16 Oeste 0 -- -- 67
2019-06-26 02:00:00 19.7 12 Oeste 20 Oeste 0 -- -- 63
2019-06-26 01:00:00 21.4 15 Oeste 22 Oeste 0 -- -- 55
2019-06-26 00:00:00 23 14 Sur 19 Sudoeste 0 -- -- 49
2019-06-25 23:00:00 24.3 15 Sudoeste 26 Sur 0 -- -- 45
2019-06-25 22:00:00 26.4 22 Sur 31 Sudoeste 0 -- -- 38
2019-06-25 21:00:00 29.1 17 Sur 36 Sur 0 -- -- 30
2019-06-25 20:00:00 30.3 25 Sudoeste 36 Sudoeste 0 -- -- 29
2019-06-25 19:00:00 31 22 Sur 33 Sudeste 0 -- -- 31
2019-06-25 18:00:00 31 22 Sur 36 Sur 0 -- -- 33
2019-06-25 17:00:00 30.5 19 Sur 37 Sudoeste 0 -- -- 35
2019-06-25 16:00:00 29.2 21 Sudeste 35 Sur 0 -- -- 38
2019-06-25 15:00:00 29.1 12 Sur 34 Sudoeste 0 -- -- 39
2019-06-25 14:00:00 28.3 16 Sudeste 33 Sur 0 -- -- 41
2019-06-25 13:00:00 27.2 14 Sudeste 29 Sur 0 -- -- 43
2019-06-25 12:00:00 25.8 15 Sur 27 Sur 0 -- -- 47
2019-06-25 11:00:00 24.2 15 Sudeste 28 Sur 0 -- -- 52
2019-06-25 10:00:00 22.3 15 Este 23 Este 0 -- -- 54
2019-06-25 09:00:00 20.2 13 Este 21 Este 0 -- -- 52
2019-06-25 08:00:00 17.3 8 Sudeste 10 Sudeste 0 -- -- 59
2019-06-25 07:00:00 15.4 5 Sudeste 9 Este 0 -- -- 63
2019-06-25 06:00:00 16.4 9 Este 13 Nordeste 0 -- -- 58
2019-06-25 05:00:00 15.7 10 Nordeste 10 Nordeste 0 -- -- 61
2019-06-25 04:00:00 16.4 5 Este 9 Nordeste 0 -- -- 61
2019-06-25 03:00:00 16.9 4 Nordeste 9 Nordeste 0 -- -- 60
2019-06-25 02:00:00 17.5 6 Norte 14 Norte 0 -- -- 59
2019-06-25 01:00:00 18.6 13 Nordeste 21 Norte 0 -- -- 55
2019-06-25 00:00:00 19.5 19 Norte 26 Norte 0 -- -- 55
2019-06-24 23:00:00 20.8 22 Norte 29 Norte 0 -- -- 55
2019-06-24 22:00:00 24.3 15 Norte 25 Noroeste 0 -- -- 50
2019-06-24 21:00:00 26.5 15 Oeste 29 Oeste 0 -- -- 50
2019-06-24 20:00:00 27.5 18 Oeste 33 Oeste 0 -- -- 48
2019-06-24 19:00:00 28.1 16 Oeste 49 Sudoeste 0 -- -- 44
2019-06-24 18:00:00 28.4 25 Oeste 37 Oeste 0 -- -- 44
2019-06-24 17:00:00 28.6 18 Oeste 35 Sur 0 -- -- 43
2019-06-24 16:00:00 29.6 17 Sur 46 Sudoeste 0 -- -- 35
2019-06-24 15:00:00 28.7 18 Sudoeste 33 Sur 0 -- -- 36
2019-06-24 14:00:00 27.6 18 Sudoeste 36 Sudoeste 0 -- -- 33
2019-06-24 13:00:00 25.9 14 Sudoeste 25 Sudoeste 0 -- -- 38
2019-06-24 12:00:00 24.6 7 Sudoeste 19 Sudoeste 0 -- -- 40
2019-06-24 11:00:00 23.2 10 Sudeste 21 Sudeste 0 -- -- 46
2019-06-24 10:00:00 21.2 11 Este 18 Este 0 -- -- 69
2019-06-24 09:00:00 19.4 3 Sudoeste 6 Sudoeste 0 -- -- 77
2019-06-24 08:00:00 18 4 Oeste 7 Noroeste 0 -- -- 79
2019-06-24 07:00:00 18.1 6 Sudeste 9 Sudeste 0 -- -- 80
2019-06-24 06:00:00 18.3 3 Sur 9 Sudoeste 0 -- -- 79
2019-06-24 05:00:00 18.6 6 Sudoeste 13 Oeste 0 -- -- 78
2019-06-24 04:00:00 19.1 8 Oeste 10 Oeste 0 -- -- 73
2019-06-24 03:00:00 19.5 6 Sudoeste 13 Sudoeste 0 -- -- 70
2019-06-24 02:00:00 20.3 9 Sudoeste 16 Sudoeste 0 -- -- 61
2019-06-24 01:00:00 21.5 4 Sudoeste 13 Oeste 0 -- -- 45
2019-06-24 00:00:00 22.4 8 Oeste 19 Oeste 0 -- -- 40
2019-06-23 23:00:00 23.7 10 Oeste 17 Oeste 0 -- -- 32
2019-06-23 22:00:00 25.4 13 Oeste 26 Oeste 0 -- -- 28
2019-06-23 21:00:00 26.9 21 Oeste 27 Oeste 0 -- -- 25
2019-06-23 20:00:00 28.3 22 Oeste 34 Noroeste 0 -- -- 24
2019-06-23 19:00:00 30.2 15 Oeste 32 Sudoeste 0 -- -- 27
2019-06-23 18:00:00 31.1 18 Sudoeste 38 Sudeste 0 -- -- 27
2019-06-23 17:00:00 30.8 9 Sur 26 Sudoeste 0 -- -- 26
2019-06-23 16:00:00 30.3 11 Sur 35 Sudoeste 0 -- -- 27
2019-06-23 15:00:00 29.5 11 Sudoeste 31 Sudoeste 0 -- -- 30
2019-06-23 14:00:00 28.5 13 Sudoeste 29 Sudoeste 0 -- -- 32
2019-06-23 13:00:00 27.1 13 Sudoeste 30 Sur 0 -- -- 34
2019-06-23 12:00:00 26.6 18 Sudoeste 30 Sudoeste 0 -- -- 36
2019-06-23 11:00:00 25.1 14 Sur 25 Sudoeste 0 -- -- 38
2019-06-23 10:00:00 23.5 16 Sur 22 Sur 0 -- -- 33
2019-06-23 09:00:00 21.2 9 Sudeste 15 Este 0 -- -- 33
2019-06-23 08:00:00 18.3 4 Este 9 Sudeste 0 -- -- 36
2019-06-23 07:00:00 16.6 8 Sudeste 9 Sudeste 0 -- -- 38
2019-06-23 06:00:00 16.3 3 Sudeste 6 Oeste 0 -- -- 37
2019-06-23 05:00:00 17.5 7 Oeste 8 Oeste 0 -- -- 35
2019-06-23 04:00:00 18 5 Sudoeste 10 Sudoeste 0 -- -- 33
2019-06-23 03:00:00 18.1 9 Sudoeste 14 Sudoeste 0 -- -- 33
2019-06-23 02:00:00 18.8 11 Sudoeste 18 Oeste 0 -- -- 32
2019-06-23 01:00:00 20 13 Oeste 22 Oeste 0 -- -- 32
2019-06-23 00:00:00 22.2 21 Oeste 31 Sudoeste 0 -- -- 30
2019-06-22 23:00:00 24.2 16 Oeste 25 Sudoeste 0 -- -- 34
2019-06-22 22:00:00 26.5 22 Sudoeste 34 Sudoeste 0 -- -- 32
2019-06-22 21:00:00 29.1 22 Sur 33 Sur 0 -- -- 28
2019-06-22 20:00:00 30.5 13 Sudoeste 26 Sudoeste 0 -- -- 24
2019-06-22 19:00:00 31.1 19 Sur 31 Sur 0 -- -- 23
2019-06-22 18:00:00 30.9 15 Sudoeste 31 Sudoeste 0 -- -- 24
2019-06-22 17:00:00 30.7 13 Sur 31 Sudoeste 0 -- -- 24
2019-06-22 16:00:00 30.3 18 Sur 32 Sur 0 -- -- 24
2019-06-22 15:00:00 29.5 12 Sudoeste 30 Sur 0 -- -- 23
2019-06-22 14:00:00 28.8 10 Sur 36 Sudeste 0 -- -- 27
2019-06-22 13:00:00 28.3 14 Sur 32 Sur 0 -- -- 30
2019-06-22 12:00:00 28 17 Sur 31 Sur 0 -- -- 29
2019-06-22 11:00:00 26 5 Este 19 Sudeste 0 -- -- 34
2019-06-22 10:00:00 23.2 4 Sur 10 Sur 0 -- -- 39
2019-06-22 09:00:00 20.1 2 Sur 5 Sur 0 -- -- 47
2019-06-22 08:00:00 17.2 5 Sur 9 Oeste 0 -- -- 55
2019-06-22 07:00:00 16.7 6 Oeste 8 Sudoeste 0 -- -- 57
2019-06-22 06:00:00 16.6 5 Sudoeste 8 Sudoeste 0 -- -- 57
2019-06-22 05:00:00 16.6 7 Sudoeste 8 Sudoeste 0 -- -- 56
2019-06-22 04:00:00 17.1 4 Sur 8 Sudoeste 0 -- -- 53
2019-06-22 03:00:00 17.4 6 Oeste 8 Sudoeste 0 -- -- 50
2019-06-22 02:00:00 18.2 4 Sudoeste 20 Noroeste 0 -- -- 44
2019-06-22 01:00:00 19.7 18 Noroeste 21 Noroeste 0 -- -- 45
2019-06-22 00:00:00 22.2 9 Noroeste 10 Noroeste 0 -- -- 35
2019-06-21 23:00:00 22.6 7 Nordeste 11 Norte 0 -- -- 32
2019-06-21 22:00:00 24.1 11 Norte 21 Norte 0 -- -- 30
2019-06-21 21:00:00 25.3 18 Norte 26 Noroeste 0 -- -- 29
2019-06-21 20:00:00 26.2 17 Norte 30 Norte 0 -- -- 29
2019-06-21 19:00:00 26.9 17 Norte 30 Noroeste 0 -- -- 28
2019-06-21 18:00:00 27.3 12 Norte 30 Noroeste 0 -- -- 30
2019-06-21 17:00:00 27 18 Norte 31 Norte 0 -- -- 32
2019-06-21 16:00:00 25.9 16 Noroeste 30 Noroeste 0 -- -- 35
2019-06-21 15:00:00 25.1 15 Noroeste 31 Noroeste 0 -- -- 33
2019-06-21 14:00:00 23.4 13 Noroeste 26 Noroeste 0 -- -- 42
2019-06-21 13:00:00 21.7 10 Noroeste 22 Noroeste 0 -- -- 50
2019-06-21 12:00:00 19.3 8 Noroeste 18 Noroeste 0 -- -- 58
2019-06-21 11:00:00 16.7 9 Noroeste 15 Noroeste 0 -- -- 67
2019-06-21 10:00:00 14.6 10 Oeste 19 Oeste 0 -- -- 75
2019-06-21 09:00:00 12.6 14 Oeste 22 Oeste 0 -- -- 84
2019-06-21 08:00:00 11.2 12 Oeste 16 Oeste 0 -- -- 89
2019-06-21 07:00:00 10.3 10 Oeste 17 Oeste 0 -- -- 90
2019-06-21 06:00:00 10.1 9 Oeste 21 Oeste 0 -- -- 87
2019-06-21 05:00:00 11.5 13 Oeste 21 Oeste 0 -- -- 82
2019-06-21 04:00:00 12.4 13 Oeste 22 Noroeste 0 -- -- 77
2019-06-21 03:00:00 14.1 21 Noroeste 28 Oeste 0 -- -- 72
2019-06-21 02:00:00 15.9 22 Oeste 31 Oeste 0 -- -- 64
2019-06-21 01:00:00 17 19 Oeste 32 Oeste 0 -- -- 59
2019-06-21 00:00:00 18.3 23 Oeste 33 Oeste 0 -- -- 54
2019-06-20 23:00:00 19.1 21 Oeste 33 Oeste 0 -- -- 52
2019-06-20 22:00:00 20 24 Oeste 37 Oeste 0 -- -- 50
2019-06-20 21:00:00 22.1 26 Oeste 35 Oeste 0 -- -- 43
2019-06-20 20:00:00 24.2 24 Oeste 36 Oeste 0 -- -- 37
2019-06-20 19:00:00 25.1 21 Oeste 36 Oeste 0 -- -- 37
2019-06-20 18:00:00 25.5 22 Oeste 42 Noroeste 0 -- -- 36
2019-06-20 17:00:00 25.5 21 Oeste 40 Oeste 0 -- -- 38
2019-06-20 16:00:00 25.3 18 Oeste 39 Oeste 0 -- -- 42
2019-06-20 15:00:00 24.7 13 Oeste 31 Sudoeste 0 -- -- 45
2019-06-20 14:00:00 23.1 11 Oeste 44 Oeste 0 -- -- 50
2019-06-20 13:00:00 22.9 17 Oeste 30 Oeste 0 -- -- 51
2019-06-20 12:00:00 21.4 6 Sudoeste 15 Oeste 0 -- -- 55
2019-06-20 11:00:00 20.3 6 Sudeste 11 Nordeste 0 -- -- 60
2019-06-20 10:00:00 17.1 2 Noroeste 7 Sudoeste 0 -- -- 75
2019-06-20 09:00:00 15.5 4 Sudoeste 10 Sudoeste 0 -- -- 82
2019-06-20 08:00:00 14.2 6 Sudoeste 10 Sudoeste 0 -- -- 87
2019-06-20 07:00:00 13.1 6 Sudoeste 10 Sudoeste 0 -- -- 88
2019-06-20 06:00:00 13.1 8 Sudoeste 12 Sudoeste 0 -- -- 87
2019-06-20 05:00:00 13.6 8 Sudoeste 14 Oeste 0 -- -- 83
2019-06-20 04:00:00 14.2 10 Sudoeste 14 Sudoeste 0 -- -- 80
2019-06-20 03:00:00 15.3 8 Oeste 17 Oeste 0 -- -- 75
2019-06-20 02:00:00 16.1 13 Oeste 18 Oeste 0 -- -- 72
2019-06-20 01:00:00 17.2 12 Oeste 16 Oeste 0 -- -- 68
2019-06-20 00:00:00 18.7 10 Oeste 12 Oeste 0 -- -- 62
2019-06-19 23:00:00 19.9 10 Oeste 18 Oeste 0 -- -- 58
2019-06-19 22:00:00 21.4 19 Noroeste 30 Noroeste 0 -- -- 54
2019-06-19 21:00:00 23.8 18 Oeste 30 Noroeste 0 -- -- 44
2019-06-19 20:00:00 24.8 18 Oeste 32 Oeste 0 -- -- 41
2019-06-19 19:00:00 24.9 16 Noroeste 33 Oeste 0 -- -- 41
2019-06-19 18:00:00 25 18 Oeste 34 Oeste 0 -- -- 40
2019-06-19 17:00:00 25.3 12 Oeste 35 Oeste 0 -- -- 40
2019-06-19 16:00:00 24.8 13 Noroeste 35 Oeste 0 -- -- 41
2019-06-19 15:00:00 23.7 13 Oeste 33 Sudoeste 0 -- -- 45
2019-06-19 14:00:00 22.6 13 Noroeste 27 Oeste 0 -- -- 47
2019-06-19 13:00:00 22.2 15 Sur 25 Sudoeste 0 -- -- 48
2019-06-19 12:00:00 19.9 14 Sudoeste 27 Oeste 0 -- -- 56
2019-06-19 11:00:00 18.2 9 Sur 14 Oeste 0 -- -- 62
2019-06-19 10:00:00 16.8 4 Sudoeste 12 Sudoeste 0 -- -- 76
2019-06-19 09:00:00 14.9 4 Sur 10 Oeste 0 -- -- 86
2019-06-19 08:00:00 13.9 6 Oeste 14 Oeste 0 -- -- 87
2019-06-19 07:00:00 13.3 6 Oeste 14 Sudoeste 0 -- -- 88
2019-06-19 06:00:00 13.3 8 Sudoeste 11 Oeste 0 -- -- 87
2019-06-19 05:00:00 14 11 Oeste 20 Oeste 0 -- -- 84
2019-06-19 04:00:00 15 17 Oeste 23 Oeste 0 -- -- 80
2019-06-19 03:00:00 15.2 14 Oeste 17 Sudoeste 0 -- -- 85
2019-06-19 02:00:00 16.1 13 Sudoeste 17 Sudoeste 0 -- -- 79
2019-06-19 01:00:00 16.8 13 Sudoeste 15 Sudoeste 0 -- -- 74
2019-06-19 00:00:00 17.5 10 Sur 21 Sudoeste 0 -- -- 71
2019-06-18 23:00:00 18.6 17 Sudoeste 25 Sudoeste 0 -- -- 66
2019-06-18 22:00:00 20.3 18 Sudoeste 28 Sudoeste 0 -- -- 57
2019-06-18 21:00:00 22.2 21 Sudoeste 33 Sudoeste 0 -- -- 52
2019-06-18 20:00:00 22.3 25 Sudoeste 44 Sudoeste 0 -- -- 53
2019-06-18 19:00:00 23.8 30 Sudoeste 46 Sudoeste 0 -- -- 46
2019-06-18 18:00:00 24.2 27 Sudoeste 46 Sudoeste 0 -- -- 48
2019-06-18 17:00:00 25.1 31 Sudoeste 46 Sudoeste 0 -- -- 44
2019-06-18 16:00:00 24.8 23 Sudoeste 39 Sudoeste 0 -- -- 43
2019-06-18 15:00:00 24.4 21 Sudoeste 39 Sudoeste 0 -- -- 45
2019-06-18 14:00:00 24.3 22 Sudoeste 38 Sudoeste 0 -- -- 43
2019-06-18 13:00:00 23.3 23 Sudoeste 34 Sudoeste 0 -- -- 37
2019-06-18 12:00:00 22.1 22 Sudoeste 33 Oeste 0 -- -- 34
2019-06-18 11:00:00 21.1 18 Sudoeste 30 Oeste 0 -- -- 23
2019-06-18 10:00:00 19.1 5 Sur 15 Sudeste 0 -- -- 25
2019-06-18 09:00:00 15.1 0 Calma 6 Oeste 0 -- -- 49
2019-06-18 08:00:00 13.1 5 Noroeste 8 Sur 0 -- -- 52
2019-06-18 07:00:00 14.9 6 Sur 13 Sudeste 0 -- -- 24
2019-06-18 06:00:00 15.9 10 Sudeste 17 Sur 0 -- -- 22
2019-06-18 05:00:00 16.7 15 Sudeste 18 Sudeste 0 -- -- 22
2019-06-18 04:00:00 17.2 13 Sudeste 15 Sudeste 0 -- -- 24
2019-06-18 03:00:00 17.7 10 Sur 19 Sur 0 -- -- 23
2019-06-18 02:00:00 18.7 15 Sur 23 Sur 0 -- -- 24
2019-06-18 01:00:00 19.7 9 Sudeste 13 Sur 0 -- -- 27
2019-06-18 00:00:00 21 10 Sudeste 13 Sudeste 0 -- -- 26
2019-06-17 23:00:00 22 5 Sudoeste 12 Sudoeste 0 -- -- 25
2019-06-17 22:00:00 22.6 12 Sudoeste 28 Sudoeste 0 -- -- 27
2019-06-17 21:00:00 25.6 23 Sudoeste 31 Sudoeste 0 -- -- 25
2019-06-17 20:00:00 27.6 24 Sudoeste 38 Sudoeste 0 -- -- 20
2019-06-17 19:00:00 28.7 21 Sur 40 Sur 0 -- -- 23
2019-06-17 18:00:00 29.2 21 Sudoeste 35 Sur 0 -- -- 22
2019-06-17 17:00:00 28.5 17 Sur 36 Sur 0 -- -- 20
2019-06-17 16:00:00 28.2 23 Sur 40 Sur 0 -- -- 19
2019-06-17 15:00:00 27.6 22 Sur 37 Sur 0 -- -- 19
2019-06-17 14:00:00 26.7 24 Sur 35 Sur 0 -- -- 21
2019-06-17 13:00:00 25.3 23 Sudeste 37 Sur 0 -- -- 23
2019-06-17 12:00:00 24.2 21 Sur 31 Sudeste 0 -- -- 24
2019-06-17 11:00:00 22.2 19 Sur 28 Sur 0 -- -- 27
2019-06-17 10:00:00 20.4 21 Sur 30 Sur 0 -- -- 29
2019-06-17 09:00:00 18.1 14 Sudeste 19 Sudeste 0 -- -- 40
2019-06-17 08:00:00 16.3 13 Sudeste 15 Sudeste 0 -- -- 43
2019-06-17 07:00:00 14.7 6 Este 8 Este 0 -- -- 56
2019-06-17 06:00:00 14.3 3 Noroeste 8 Sudeste 0 -- -- 45
2019-06-17 05:00:00 15.6 5 Sudeste 8 Sudeste 0 -- -- 39
2019-06-17 04:00:00 15.7 6 Sudeste 9 Sudeste 0 -- -- 37
2019-06-17 03:00:00 16.7 3 Sur 8 Oeste 0 -- -- 34
2019-06-17 02:00:00 17.3 7 Oeste 11 Sudoeste 0 -- -- 33
2019-06-17 01:00:00 18.1 9 Sur 19 Sur 0 -- -- 33
2019-06-17 00:00:00 19.3 11 Sur 15 Sur 0 -- -- 32
2019-06-16 23:00:00 20.8 9 Sur 23 Sudoeste 0 -- -- 33
2019-06-16 22:00:00 23 19 Sudoeste 35 Sur 0 -- -- 31
2019-06-16 21:00:00 26.3 22 Sur 36 Sur 0 -- -- 24
2019-06-16 20:00:00 27.5 28 Sur 41 Sur 0 -- -- 24
2019-06-16 19:00:00 29.1 22 Sudoeste 51 Sur 0 -- -- 19
2019-06-16 18:00:00 28.9 19 Sur 42 Sur 0 -- -- 19
2019-06-16 17:00:00 28.5 15 Sur 34 Sudeste 0 -- -- 21
2019-06-16 16:00:00 28.5 19 Sur 36 Sur 0 -- -- 21
2019-06-16 15:00:00 26.8 12 Sur 31 Sur 0 -- -- 23
2019-06-16 14:00:00 27 17 Sur 35 Sur 0 -- -- 20
2019-06-16 13:00:00 25.1 21 Sur 29 Sur 0 -- -- 28
2019-06-16 12:00:00 24 8 Este 20 Este 0 -- -- 30
2019-06-16 11:00:00 22.1 10 Este 16 Nordeste 0 -- -- 35
2019-06-16 10:00:00 19.1 5 Nordeste 8 Nordeste 0 -- -- 45
2019-06-16 09:00:00 16.6 4 Norte 6 Nordeste 0 -- -- 54
2019-06-16 08:00:00 14.6 0 Calma 3 Noroeste 0 -- -- 58
2019-06-16 07:00:00 13.6 0 Calma 4 Sur 0 -- -- 58
2019-06-16 06:00:00 13.9 0 Calma 4 Sudoeste 0 -- -- 56
2019-06-16 05:00:00 14.2 3 Sudoeste 7 Norte 0 -- -- 47
2019-06-16 04:00:00 14.6 6 Norte 18 Noroeste 0 -- -- 46
2019-06-16 03:00:00 16.8 7 Norte 12 Noroeste 0 -- -- 33
2019-06-16 02:00:00 16.9 8 Nordeste 12 Nordeste 0 -- -- 34
2019-06-16 01:00:00 17.9 9 Norte 16 Nordeste 0 -- -- 33
2019-06-16 00:00:00 17.8 11 Norte 16 Norte 0 -- -- 34